Time;durP1;ratioP1;P1;durP2;ratioP2;P2;SDS_P1;SDS_P2;PMS_P1;PMS_P2;Temp;Humidity;BMP_temperature;BMP_pressure;BME280_temperature;BME280_humidity;BME280_pressure;Samples;Min_cycle;Max_cycle;Signal;HPM_P1;HPM_P2
2022/12/22 03:26:37;;;;;;;22.10;12.83;;;;;;;5.47;100.00;99893.75;4857054;29;20598;-78
2022/12/22 03:29:04;;;;;;;27.97;15.67;;;;;;;5.49;100.00;99889.34;4861371;29;20056;-79
2022/12/22 03:31:31;;;;;;;26.23;15.33;;;;;;;5.52;100.00;99893.69;4859847;29;20049;-80
2022/12/22 03:33:58;;;;;;;24.60;15.30;;;;;;;5.46;100.00;99891.13;4857505;29;20049;-79
2022/12/22 03:36:24;;;;;;;23.87;15.00;;;;;;;5.48;100.00;99887.63;4858701;29;20057;-80
2022/12/22 03:38:51;;;;;;;26.33;15.10;;;;;;;5.52;100.00;99891.06;4861550;29;20045;-79
2022/12/22 03:46:48;;;;;;;26.50;15.33;;;;;;;5.43;100.00;99878.94;4870015;29;20514;-79
2022/12/22 03:49:15;;;;;;;23.90;14.67;;;;;;;5.42;100.00;99878.97;4839528;29;20065;-78
2022/12/22 03:51:47;;;;;;;23.30;14.13;;;;;;;5.44;100.00;99883.28;4865308;29;20037;-79
2022/12/22 03:54:17;;;;;;;26.60;14.10;;;;;;;5.42;100.00;99876.34;4861463;29;20069;-79
2022/12/22 03:56:44;;;;;;;27.90;16.20;;;;;;;5.42;100.00;99874.59;4842778;29;20106;-79
2022/12/22 03:59:14;;;;;;;22.47;14.17;;;;;;;5.36;100.00;99866.78;4847109;29;20072;-79
2022/12/22 04:01:44;;;;;;;25.00;14.67;;;;;;;5.35;100.00;99870.31;4861374;29;20659;-79
2022/12/22 04:04:12;;;;;;;26.57;15.93;;;;;;;5.55;100.00;99870.03;4845865;29;20537;-79
2022/12/22 04:06:40;;;;;;;26.53;14.50;;;;;;;5.42;100.00;99869.34;4859684;29;20084;-79
2022/12/22 04:09:06;;;;;;;27.07;14.90;;;;;;;5.39;100.00;99863.28;4881931;29;20054;-79
2022/12/22 04:14:19;;;;;;;26.30;15.77;;;;;;;5.34;100.00;99852.84;4858648;29;20053;-79
2022/12/22 04:16:46;;;;;;;28.63;15.87;;;;;;;5.40;100.00;99852.78;4846068;29;20042;-79
2022/12/22 04:19:13;;;;;;;27.40;17.17;;;;;;;5.50;100.00;99849.16;4860880;29;20045;-79
2022/12/22 04:21:40;;;;;;;22.97;13.50;;;;;;;5.39;100.00;99847.59;4860592;29;20046;-78
2022/12/22 04:24:07;;;;;;;25.33;13.53;;;;;;;5.34;100.00;99845.88;4872410;29;20049;-79
2022/12/22 04:26:34;;;;;;;29.40;15.47;;;;;;;5.31;100.00;99847.66;4865607;29;20042;-79
2022/12/22 04:29:00;;;;;;;21.33;14.23;;;;;;;5.31;100.00;99847.66;4877653;29;20061;-79
2022/12/22 04:31:27;;;;;;;26.87;14.33;;;;;;;5.36;100.00;99848.47;4875200;29;20074;-79
2022/12/22 04:33:54;;;;;;;29.47;14.43;;;;;;;5.33;100.00;99846.75;4858950;29;20090;-79
2022/12/22 04:36:21;;;;;;;45.70;16.97;;;;;;;5.25;100.00;99838.13;4875055;29;20038;-79
2022/12/22 04:38:47;;;;;;;27.00;13.93;;;;;;;5.30;100.00;99843.31;4859576;29;20046;-79
2022/12/22 04:41:14;;;;;;;19.90;11.97;;;;;;;5.22;100.00;99838.16;4864129;29;20045;-79
2022/12/22 04:43:41;;;;;;;22.50;11.97;;;;;;;5.22;100.00;99839.94;4875933;29;20040;-79
2022/12/22 04:46:07;;;;;;;20.97;12.47;;;;;;;5.24;100.00;99843.38;4880494;29;20050;-79
2022/12/22 04:48:34;;;;;;;25.77;15.10;;;;;;;5.31;100.00;99834.56;4865248;29;20144;-80
2022/12/22 04:51:02;;;;;;;24.93;14.17;;;;;;;5.38;100.00;99841.44;4834051;29;20453;-79
2022/12/22 04:53:29;;;;;;;25.83;14.40;;;;;;;5.29;100.00;99831.09;4863282;29;20064;-79
2022/12/22 04:56:01;;;;;;;27.27;14.57;;;;;;;5.25;100.00;99827.66;4850564;29;20464;-80
2022/12/22 04:58:28;;;;;;;21.87;13.33;;;;;;;5.28;100.00;99834.59;4872540;29;20045;-79
2022/12/22 05:00:55;;;;;;;26.67;14.90;;;;;;;5.33;100.00;99823.19;4879774;29;20646;-80
2022/12/22 05:03:22;;;;;;;26.37;14.37;;;;;;;5.31;100.00;99817.09;4872455;29;20042;-79
2022/12/22 05:05:49;;;;;;;28.23;15.77;;;;;;;5.28;100.00;99806.66;4877362;29;20050;-79
2022/12/22 05:08:16;;;;;;;25.37;14.13;;;;;;;5.22;100.00;99801.50;4884623;29;20046;-79
2022/12/22 05:10:42;;;;;;;27.60;14.87;;;;;;;5.20;100.00;99800.63;4861767;29;20048;-79
2022/12/22 05:13:09;;;;;;;25.77;14.30;;;;;;;5.23;100.00;99802.38;4895393;29;20049;-79
2022/12/22 05:15:36;;;;;;;26.40;14.77;;;;;;;5.20;100.00;99799.78;4864037;29;20045;-79
2022/12/22 05:18:03;;;;;;;23.43;14.33;;;;;;;5.25;100.00;99800.59;4845203;29;20049;-78
2022/12/22 05:20:30;;;;;;;27.13;15.20;;;;;;;5.30;100.00;99791.81;4856982;29;20045;-79
2022/12/22 05:22:57;;;;;;;26.73;15.30;;;;;;;5.34;100.00;99780.38;4879760;29;20128;-80
2022/12/22 05:25:24;;;;;;;29.83;15.80;;;;;;;5.31;100.00;99775.19;4874221;29;20049;-79
2022/12/22 05:27:57;;;;;;;25.97;14.77;;;;;;;5.32;100.00;99771.69;4856607;29;20042;-79
2022/12/22 05:30:23;;;;;;;28.13;16.20;;;;;;;5.28;100.00;99766.50;4864390;29;20074;-79
2022/12/22 05:32:50;;;;;;;27.70;16.60;;;;;;;5.27;100.00;99764.78;4863702;29;20049;-79
2022/12/22 05:35:17;;;;;;;31.53;16.03;;;;;;;5.23;100.00;99757.84;4862245;29;20457;-79
2022/12/22 05:37:43;;;;;;;25.00;14.27;;;;;;;5.19;100.00;99753.53;4858888;29;20571;-79
2022/12/22 05:40:10;;;;;;;25.63;15.20;;;;;;;5.16;100.00;99754.44;4859944;29;20050;-79
2022/12/22 05:42:38;;;;;;;25.83;14.30;;;;;;;5.20;100.00;99755.25;4878084;29;20111;-79
2022/12/22 05:45:12;;;;;;;27.50;14.87;;;;;;;5.22;100.00;99756.13;4847703;29;20064;-79
2022/12/22 05:47:38;;;;;;;26.27;14.10;;;;;;;5.19;100.00;99749.16;4861274;29;20049;-79
2022/12/22 05:50:06;;;;;;;28.47;15.87;;;;;;;5.36;100.00;99747.19;4857151;29;20049;-79
2022/12/22 05:52:33;;;;;;;27.73;14.30;;;;;;;5.34;100.00;99748.97;4876674;29;20072;-79
2022/12/22 05:55:00;;;;;;;28.83;15.07;;;;;;;5.26;100.00;99745.56;4864598;29;20034;-80
2022/12/22 05:57:26;;;;;;;24.53;14.17;;;;;;;5.36;100.00;99744.56;4860563;29;20041;-78
2022/12/22 05:59:53;;;;;;;29.47;16.40;;;;;;;5.33;100.00;99739.38;4847239;29;20045;-78
2022/12/22 06:02:20;;;;;;;29.53;16.17;;;;;;;5.33;100.00;99735.88;4874496;29;20045;-78
2022/12/22 06:04:47;;;;;;;31.23;17.00;;;;;;;5.46;100.00;99731.31;4846719;29;20071;-78
2022/12/22 06:07:14;;;;;;;26.03;14.40;;;;;;;5.43;100.00;99740.09;4844473;29;20057;-79
2022/12/22 06:09:40;;;;;;;28.00;14.67;;;;;;;5.39;100.00;99733.19;4875381;29;20050;-79
2022/12/22 06:12:07;;;;;;;27.13;14.67;;;;;;;5.36;100.00;99730.59;4859937;29;20068;-78
2022/12/22 06:14:34;;;;;;;25.93;14.43;;;;;;;5.35;100.00;99737.59;4860738;29;20041;-79
2022/12/22 06:17:01;;;;;;;28.77;15.97;;;;;;;5.43;100.00;99728.75;4873599;29;20527;-79
2022/12/22 06:19:28;;;;;;;27.30;14.67;;;;;;;5.43;100.00;99729.63;4880701;29;20053;-78
2022/12/22 06:21:54;;;;;;;25.90;15.10;;;;;;;5.38;100.00;99726.19;4874065;29;20532;-78
2022/12/22 06:24:21;;;;;;;28.70;15.73;;;;;;;5.48;100.00;99727.81;4876255;29;20044;-78
2022/12/22 06:26:47;;;;;;;29.50;15.20;;;;;;;5.47;100.00;99722.59;4859714;29;20038;-79
2022/12/22 06:29:14;;;;;;;27.53;14.73;;;;;;;5.52;100.00;99724.25;4839504;29;20049;-78
2022/12/22 06:31:41;;;;;;;26.60;15.63;;;;;;;5.60;100.00;99717.13;4874370;29;20041;-78
2022/12/22 06:34:09;;;;;;;29.23;15.30;;;;;;;5.56;100.00;99717.22;4874017;29;20124;-78
2022/12/22 06:36:37;;;;;;;27.60;16.03;;;;;;;5.64;100.00;99712.75;4861322;29;20549;-78
2022/12/22 06:39:05;;;;;;;27.03;14.20;;;;;;;5.69;100.00;99689.94;4862112;29;20053;-78
2022/12/22 06:44:17;;;;;;;28.77;14.13;;;;;;;5.63;100.00;99688.28;4863537;29;20042;-78
2022/12/22 06:46:44;;;;;;;26.23;14.60;;;;;;;5.69;100.00;99681.19;4859034;29;20065;-79
2022/12/22 06:49:10;;;;;;;30.00;14.43;;;;;;;5.73;100.00;99682.91;4858012;29;20045;-78
2022/12/22 06:51:37;;;;;;;23.80;13.83;;;;;;;5.66;100.00;99687.38;4843067;29;20041;-78
2022/12/22 06:54:04;;;;;;;26.27;15.10;;;;;;;5.72;100.00;99684.66;4856045;29;20442;-78
2022/12/22 06:56:31;;;;;;;27.97;15.40;;;;;;;5.72;100.00;99675.91;4837964;29;20049;-78
2022/12/22 06:58:57;;;;;;;28.07;15.47;;;;;;;5.68;100.00;99675.09;4869929;29;20045;-78
2022/12/22 07:01:24;;;;;;;26.40;14.73;;;;;;;5.75;100.00;99663.63;4853662;29;20042;-78
2022/12/22 07:03:51;;;;;;;29.60;15.00;;;;;;;5.76;100.00;99664.50;4842966;29;20038;-79
2022/12/22 07:06:18;;;;;;;29.10;14.13;;;;;;;5.89;100.00;99669.50;4876030;29;20044;-79
2022/12/22 07:08:45;;;;;;;28.47;15.37;;;;;;;5.86;100.00;99676.53;4872140;29;20038;-79
2022/12/22 07:11:13;;;;;;;25.23;13.60;;;;;;;5.76;100.00;99672.34;4911242;23;20060;-78
2022/12/22 07:13:40;;;;;;;26.00;14.80;;;;;;;5.86;100.00;99674.78;4831821;29;20063;-80
2022/12/22 07:16:09;;;;;;;26.73;13.87;;;;;;;5.81;100.00;99667.91;4856193;29;20056;-80
2022/12/22 07:18:40;;;;;;;27.73;14.93;;;;;;;5.80;100.00;99661.81;4841490;29;20136;-80
2022/12/22 07:21:09;;;;;;;28.47;14.07;;;;;;;5.79;100.00;99657.44;4866836;29;20045;-80
2022/12/22 07:23:36;;;;;;;27.70;15.23;;;;;;;5.84;100.00;99660.84;4834601;29;20041;-79
2022/12/22 07:26:04;;;;;;;26.00;14.90;;;;;;;5.88;100.00;99661.66;4857695;29;20046;-80
2022/12/22 07:28:33;;;;;;;24.03;12.37;;;;;;;5.81;100.00;99660.06;4856319;29;20049;-80
2022/12/22 07:30:59;;;;;;;26.77;13.60;;;;;;;5.89;100.00;99656.41;4859552;29;20476;-80
2022/12/22 07:33:26;;;;;;;29.10;14.10;;;;;;;5.89;100.00;99653.78;4857707;29;20049;-80
2022/12/22 07:36:04;;;;;;;23.83;12.93;;;;;;;5.89;100.00;99656.41;4862629;29;20053;-80
2022/12/22 07:38:35;;;;;;;30.23;14.60;;;;;;;5.96;100.00;99662.41;4839971;29;20045;-80
2022/12/22 07:41:03;;;;;;;27.80;14.33;;;;;;;5.90;100.00;99662.50;4848615;29;20049;-80
2022/12/22 07:43:31;;;;;;;25.00;13.10;;;;;;;5.88;100.00;99664.25;4855997;29;20523;-79
2022/12/22 07:45:57;;;;;;;26.30;13.03;;;;;;;5.85;100.00;99659.09;4871949;29;20097;-80
2022/12/22 07:51:09;;;;;;;28.27;16.30;;;;;;;5.90;100.00;99638.91;4868607;29;20060;-82
2022/12/22 07:53:38;;;;;;;27.50;14.80;;;;;;;5.94;100.00;99627.50;4854965;29;20049;-80
2022/12/22 07:56:05;;;;;;;26.93;15.00;;;;;;;5.88;100.00;99624.94;4853247;29;20624;-80
2022/12/22 07:58:32;;;;;;;28.40;15.47;;;;;;;6.00;100.00;99629.16;4840537;29;20049;-80
2022/12/22 08:01:00;;;;;;;28.97;15.47;;;;;;;6.01;100.00;99628.25;4839104;29;20052;-80
2022/12/22 08:03:26;;;;;;;27.47;15.30;;;;;;;5.94;100.00;99622.25;4840247;29;20161;-80
2022/12/22 08:05:53;;;;;;;29.30;13.77;;;;;;;6.00;100.00;99629.16;4838850;29;20611;-80
2022/12/22 08:08:20;;;;;;;28.73;14.67;;;;;;;6.02;100.00;99624.75;4855849;29;20065;-80
2022/12/22 08:10:47;;;;;;;30.83;15.33;;;;;;;5.96;100.00;99625.72;4832627;29;20056;-80
2022/12/22 08:13:13;;;;;;;29.93;15.20;;;;;;;6.09;100.00;99621.97;4846771;29;20049;-80
2022/12/22 08:15:40;;;;;;;31.07;16.53;;;;;;;6.01;100.00;99623.00;4866858;29;20037;-80
2022/12/22 08:18:07;;;;;;;30.63;16.80;;;;;;;6.10;100.00;99618.47;4860534;29;20053;-80
2022/12/22 08:20:33;;;;;;;27.93;14.50;;;;;;;6.03;100.00;99615.97;4860245;29;20049;-80
2022/12/22 08:23:00;;;;;;;29.67;15.90;;;;;;;6.05;100.00;99616.81;4828446;29;20045;-80
2022/12/22 08:25:28;;;;;;;27.20;14.70;;;;;;;6.03;100.00;99616.84;4856498;29;20059;-80
2022/12/22 08:27:55;;;;;;;29.17;14.97;;;;;;;6.03;100.00;99611.59;4869323;29;20406;-80
2022/12/22 08:30:22;;;;;;;28.57;15.90;;;;;;;6.09;100.00;99610.63;4878097;29;20052;-80
2022/12/22 08:32:49;;;;;;;31.47;15.83;;;;;;;6.04;100.00;99601.97;4874688;29;20038;-80
2022/12/22 08:35:17;;;;;;;34.37;17.00;;;;;;;6.05;100.00;99604.56;4859186;29;20527;-80
2022/12/22 08:37:44;;;;;;;30.77;16.17;;;;;;;6.07;100.00;99604.56;4860853;29;20056;-80
2022/12/22 08:40:15;;;;;;;33.53;17.77;;;;;;;6.03;100.00;99608.97;4860004;29;20050;-80
2022/12/22 08:42:41;;;;;;;30.87;17.07;;;;;;;6.02;100.00;99607.25;4861968;29;20046;-80
2022/12/22 08:45:10;;;;;;;31.50;17.10;;;;;;;6.07;100.00;99605.41;4865019;29;20125;-80
2022/12/22 08:47:36;;;;;;;36.13;19.33;;;;;;;6.11;100.00;99598.34;4844929;29;20033;-80
2022/12/22 08:50:04;;;;;;;33.43;17.27;;;;;;;6.17;100.00;99608.72;4858142;29;20045;-80
2022/12/22 08:52:30;;;;;;;39.23;17.93;;;;;;;6.17;100.00;99595.63;4859747;29;20113;-81
2022/12/22 08:54:57;;;;;;;32.20;17.73;;;;;;;6.17;100.00;99599.09;4858973;29;20052;-80
2022/12/22 08:57:24;;;;;;;36.23;18.33;;;;;;;6.23;100.00;99592.88;4857909;29;20053;-80
2022/12/22 08:59:50;;;;;;;36.20;18.57;;;;;;;6.27;100.00;99594.53;4861301;29;20041;-80
2022/12/22 09:02:17;;;;;;;35.20;18.17;;;;;;;6.28;100.00;99570.03;4858891;29;20129;-80
2022/12/22 09:04:44;;;;;;;34.63;18.70;;;;;;;6.25;100.00;99584.97;4858890;29;20101;-80
2022/12/22 09:07:11;;;;;;;40.20;20.77;;;;;;;6.28;100.00;99579.66;4868683;29;20044;-80
2022/12/22 09:09:37;;;;;;;36.87;19.47;;;;;;;6.28;100.00;99585.75;4846890;29;20053;-80
2022/12/22 09:12:04;;;;;;;36.87;18.93;;;;;;;6.35;100.00;99579.50;4876058;29;20414;-80
2022/12/22 09:14:31;;;;;;;34.97;19.07;;;;;;;6.37;100.00;99585.56;4859870;29;20125;-80
2022/12/22 09:16:58;;;;;;;36.50;20.27;;;;;;;6.32;100.00;99584.81;4875104;29;20148;-80
2022/12/22 09:19:25;;;;;;;34.30;18.93;;;;;;;6.30;100.00;99583.97;4829493;29;20053;-79
2022/12/22 09:21:52;;;;;;;34.43;18.93;;;;;;;6.32;100.00;99586.59;4876223;29;20037;-80
2022/12/22 09:24:18;;;;;;;33.03;17.67;;;;;;;6.35;100.00;99579.50;4860351;29;20046;-79
2022/12/22 09:26:45;;;;;;;40.47;19.20;;;;;;;6.33;100.00;99577.81;4829354;29;20046;-79
2022/12/22 09:29:14;;;;;;;35.10;20.67;;;;;;;6.37;100.00;99576.84;4853615;29;20465;-80
2022/12/22 09:31:41;;;;;;;44.63;24.30;;;;;;;6.38;100.00;99576.81;4874949;29;20068;-80
2022/12/22 09:34:08;;;;;;;43.90;25.03;;;;;;;6.35;100.00;99571.63;4860986;29;20119;-79
2022/12/22 09:36:43;;;;;;;42.27;22.13;;;;;;;6.42;100.00;99557.50;4850111;29;20046;-80
2022/12/22 09:39:10;;;;;;;41.40;22.63;;;;;;;6.41;100.00;99568.88;4856218;29;20094;-80
2022/12/22 09:41:51;;;;;;;38.80;20.73;;;;;;;6.44;100.00;99563.56;4858146;29;20041;-80
2022/12/22 09:44:21;;;;;;;61.70;31.07;;;;;;;6.51;100.00;99559.06;4854194;29;20106;-80
2022/12/22 09:46:48;;;;;;;48.67;24.30;;;;;;;6.54;100.00;99560.75;4873556;29;20049;-80
2022/12/22 09:49:17;;;;;;;44.90;23.70;;;;;;;6.54;100.00;99563.38;4879866;29;20041;-80
2022/12/22 09:51:47;;;;;;;41.17;22.23;;;;;;;6.61;100.00;99559.72;4840940;29;20065;-80
2022/12/22 09:54:15;;;;;;;40.60;23.67;;;;;;;6.58;100.00;99562.41;4856438;29;20529;-80
2022/12/22 09:56:41;;;;;;;42.73;23.97;;;;;;;6.63;100.00;99560.53;4853304;29;20052;-80
2022/12/22 09:59:16;;;;;;;39.53;22.03;;;;;;;6.69;100.00;99548.16;4864241;29;20049;-80
2022/12/22 10:02:01;;;;;;;37.00;21.33;;;;;;;6.62;100.00;99545.69;4868418;29;20042;-80
2022/12/22 10:04:30;;;;;;;;;;;;;;;6.59;100.00;99548.41;4844139;29;20042;-80
2022/12/22 10:07:12;;;;;;;34.27;19.57;;;;;;;6.56;100.00;99544.09;4849263;29;19924;-80
2022/12/22 10:09:38;;;;;;;37.70;20.07;;;;;;;6.63;100.00;99537.78;4839463;29;20053;-80
2022/12/22 10:12:25;;;;;;;35.47;18.83;;;;;;;6.62;100.00;99546.56;4856967;29;20101;-80
2022/12/22 10:14:52;;;;;;;36.53;20.23;;;;;;;6.63;100.00;99537.78;4852063;29;20666;-80
2022/12/22 10:17:28;;;;;;;40.50;20.73;;;;;;;6.59;100.00;99537.91;4866802;29;20081;-80
2022/12/22 10:20:20;;;;;;;33.07;18.30;;;;;;;6.57;100.00;99535.31;4872448;29;20041;-80
2022/12/22 10:23:03;;;;;;;39.17;19.97;;;;;;;6.61;100.00;99533.47;4855747;29;20048;-80
2022/12/22 10:25:35;;;;;;;37.10;19.97;;;;;;;6.60;100.00;99531.75;4841294;29;20042;-81
2022/12/22 10:28:32;;;;;;;35.47;19.87;;;;;;;6.59;100.00;99528.25;4855433;29;20436;-80
2022/12/22 10:31:18;;;;;;;39.10;20.53;;;;;;;6.62;100.00;99522.06;4848907;29;20053;-80
2022/12/22 10:33:47;;;;;;;34.33;20.10;;;;;;;6.57;100.00;99513.47;4855301;29;20052;-80
2022/12/22 10:36:19;;;;;;;35.23;20.73;;;;;;;6.58;100.00;99513.41;4861146;29;20049;-81
2022/12/22 10:38:57;;;;;;;38.63;21.13;;;;;;;6.65;100.00;99511.53;4853621;29;20130;-80
2022/12/22 10:41:26;;;;;;;38.30;19.97;;;;;;;6.61;100.00;99513.34;4871643;29;20607;-81
2022/12/22 10:43:58;;;;;;;33.03;18.97;;;;;;;6.59;100.00;99517.78;4866965;29;20045;-80
2022/12/22 10:46:48;;;;;;;33.73;17.70;;;;;;;6.64;100.00;99517.66;4869403;29;20048;-80
2022/12/22 10:49:35;;;;;;;32.73;17.20;;;;;;;6.61;100.00;99512.47;4857730;29;20160;-81
2022/12/22 10:52:15;;;;;;;36.53;19.13;;;;;;;6.62;100.00;99516.81;4868165;29;20042;-81
2022/12/22 10:54:43;;;;;;;35.67;19.77;;;;;;;6.63;100.00;99514.16;4866843;29;20037;-81
2022/12/22 10:57:13;;;;;;;34.73;18.20;;;;;;;6.63;100.00;99503.66;4866936;29;20487;-81
2022/12/22 10:59:47;;;;;;;30.00;17.47;;;;;;;6.61;100.00;99497.59;4856757;29;20042;-81
2022/12/22 11:02:36;;;;;;;30.77;18.60;;;;;;;6.65;100.00;99499.25;4854133;29;20050;-81
2022/12/22 11:05:06;;;;;;;53.20;20.03;;;;;;;6.65;100.00;99501.88;4856366;29;20049;-80
2022/12/22 11:07:39;;;;;;;31.97;17.87;;;;;;;6.66;100.00;99508.00;4855139;29;20599;-82
2022/12/22 11:10:30;;;;;;;31.70;17.43;;;;;;;6.68;100.00;99499.19;4871842;29;20535;-81
2022/12/22 11:13:01;;;;;;;34.37;19.37;;;;;;;6.71;100.00;99495.63;4835914;29;1018455;-80
2022/12/22 11:15:56;;;;;;;34.93;19.63;;;;;;;6.72;100.00;99498.19;4870222;29;20513;-81
2022/12/22 11:18:38;;;;;;;32.33;18.77;;;;;;;6.71;100.00;99499.09;4837606;29;20047;-81
2022/12/22 11:21:23;;;;;;;28.37;16.33;;;;;;;6.70;100.00;99497.38;4856307;29;20150;-81
2022/12/22 11:23:50;;;;;;;30.77;17.80;;;;;;;6.69;100.00;99493.03;4853902;29;20041;-81
2022/12/22 11:26:35;;;;;;;33.60;16.93;;;;;;;6.69;100.00;99486.91;4854724;29;20400;-80
2022/12/22 11:29:31;;;;;;;27.03;17.13;;;;;;;6.67;100.00;99488.72;4838297;29;20088;-80
2022/12/22 11:32:20;;;;;;;27.30;16.70;;;;;;;6.64;100.00;99484.41;4854974;29;20057;-79
2022/12/22 11:34:59;;;;;;;24.67;14.97;;;;;;;6.71;100.00;99488.59;4843487;29;20049;-79
2022/12/22 11:37:30;;;;;;;27.40;15.77;;;;;;;6.66;100.00;99476.50;4844812;29;20058;-80
2022/12/22 11:40:05;;;;;;;27.20;15.27;;;;;;;6.66;100.00;99476.50;4838673;29;20049;-80
2022/12/22 11:43:10;;;;;;;24.63;14.77;;;;;;;6.67;100.00;99476.47;4851328;29;20058;-81
2022/12/22 11:46:31;;;;;;;21.05;12.95;;;;;;;6.67;100.00;99470.34;4851082;29;20047;-81
2022/12/22 11:49:13;;;;;;;23.87;13.57;;;;;;;6.72;100.00;99461.44;4837826;29;20049;-81
2022/12/22 11:51:59;;;;;;;24.07;12.73;;;;;;;6.74;100.00;99466.69;4852077;29;20566;-81
2022/12/22 11:54:44;;;;;;;20.77;10.90;;;;;;;6.76;100.00;99457.88;4852853;29;20049;-80
2022/12/22 11:57:21;;;;;;;38.63;16.27;;;;;;;6.83;100.00;99455.09;4852527;29;20041;-80
2022/12/22 12:00:10;;;;;;;28.57;17.00;;;;;;;6.87;100.00;99452.34;4850355;29;20941;-81
2022/12/22 12:03:04;;;;;;;27.50;15.20;;;;;;;6.91;100.00;99454.00;4868261;29;20041;-81
2022/12/22 12:05:59;;;;;;;28.75;14.82;;;;;;;6.91;100.00;99455.78;4853366;29;20500;-81
2022/12/22 12:08:49;;;;;;;31.90;17.13;;;;;;;6.95;100.00;99447.78;4862946;29;20106;-81
2022/12/22 12:11:26;;;;;;;34.70;19.67;;;;;;;6.96;100.00;99454.75;4854044;29;20055;-81
2022/12/22 12:14:12;;;;;;;40.07;23.73;;;;;;;6.96;100.00;99451.25;4869434;29;20049;-81
2022/12/22 12:16:43;;;;;;;34.70;19.50;;;;;;;6.94;100.00;99448.69;4854615;29;20132;-81
2022/12/22 12:19:44;;;;;;;32.10;20.17;;;;;;;6.96;100.00;99451.25;4852767;29;20045;-81
2022/12/22 12:22:36;;;;;;;30.00;16.53;;;;;;;6.95;100.00;99446.91;4851740;29;20045;-81
2022/12/22 12:25:15;;;;;;;28.77;16.10;;;;;;;6.96;100.00;99441.63;4851025;29;20049;-81
2022/12/22 12:28:07;;;;;;;26.60;15.30;;;;;;;6.97;100.00;99438.09;4856967;29;20105;-81
2022/12/22 12:30:47;;;;;;;27.98;15.23;;;;;;;6.99;100.00;99443.31;4855825;29;20045;-81
2022/12/22 12:33:29;;;;;;;24.87;14.20;;;;;;;6.99;100.00;99438.94;4862804;29;20049;-80
2022/12/22 12:36:18;;;;;;;24.87;13.80;;;;;;;7.01;100.00;99438.88;4867085;29;20388;-80
2022/12/22 12:39:03;;;;;;;26.93;15.37;;;;;;;7.04;100.00;99429.16;4838886;29;20464;-80
2022/12/22 12:42:08;;;;;;;29.50;17.77;;;;;;;7.13;100.00;99416.69;4849723;29;20058;-81
2022/12/22 12:44:35;;;;;;;30.43;17.00;;;;;;;7.17;100.00;99424.47;4871294;29;20055;-81
2022/12/22 12:47:20;;;;;;;31.43;16.90;;;;;;;7.23;100.00;99420.78;4853619;29;20045;-81
2022/12/22 12:49:57;;;;;;;28.83;16.30;;;;;;;7.27;100.00;99425.06;4844024;29;20064;-82
2022/12/22 12:52:39;;;;;;;26.83;16.20;;;;;;;7.35;100.00;99423.09;4863119;29;20055;-81
2022/12/22 12:55:29;;;;;;;28.87;16.63;;;;;;;7.32;100.00;99421.44;4855827;29;20788;-81
2022/12/22 12:58:00;;;;;;;31.07;17.07;;;;;;;7.33;100.00;99422.28;4854263;29;20053;-81
2022/12/22 13:00:30;;;;;;;29.40;16.63;;;;;;;7.32;100.00;99424.06;4853853;29;20057;-81
2022/12/22 13:03:23;;;;;;;32.67;19.50;;;;;;;7.38;100.00;99417.75;4855736;29;20050;-81
2022/12/22 13:06:55;;;;;;;26.50;15.80;;;;;;;7.38;100.00;99425.63;4868501;29;20045;-81
2022/12/22 13:09:24;;;;;;;25.57;15.10;;;;;;;7.34;100.00;99416.13;4854658;29;20058;-81
2022/12/22 13:12:32;;;;;;;24.00;15.67;;;;;;;7.36;100.00;99414.31;4844279;29;20113;-80
2022/12/22 13:15:00;;;;;;;26.17;16.13;;;;;;;7.41;100.00;99414.19;4855784;29;20037;-81
2022/12/22 13:17:37;;;;;;;28.07;17.07;;;;;;;7.53;100.00;99421.72;4871512;29;20187;-80
2022/12/22 13:20:05;;;;;;;26.67;15.57;;;;;;;7.41;100.00;99427.34;4876372;29;20045;-81
2022/12/22 13:22:32;;;;;;;30.93;19.10;;;;;;;7.38;100.00;99430.03;4861194;29;20045;-81
2022/12/22 13:25:01;;;;;;;46.67;33.17;;;;;;;7.41;100.00;99432.59;4876760;29;20089;-80
2022/12/22 13:27:27;;;;;;;42.53;30.60;;;;;;;7.33;100.00;99436.28;4842302;29;20057;-81
2022/12/22 13:29:54;;;;;;;33.67;24.00;;;;;;;7.31;100.00;99432.84;4843914;29;20041;-82
2022/12/22 13:32:27;;;;;;;25.73;17.40;;;;;;;7.30;100.00;99446.84;4838711;29;20041;-82
2022/12/22 13:35:12;;;;;;;31.07;18.00;;;;;;;7.29;100.00;99455.63;4839935;29;20052;-80
2022/12/22 13:37:57;;;;;;;33.60;21.37;;;;;;;7.30;100.00;99459.13;4853861;29;20061;-80
2022/12/22 13:40:27;;;;;;;34.27;19.47;;;;;;;7.33;100.00;99456.44;4876287;29;20045;-81
2022/12/22 13:42:56;;;;;;;27.30;16.83;;;;;;;7.26;100.00;99463.63;4858402;29;20046;-81
2022/12/22 13:45:30;;;;;;;31.67;18.17;;;;;;;7.33;100.00;99459.94;4874369;29;20427;-81
2022/12/22 13:47:59;;;;;;;31.40;17.42;;;;;;;7.40;100.00;99470.25;4857033;29;20050;-81
2022/12/22 13:50:40;;;;;;;26.63;15.63;;;;;;;7.34;100.00;99472.16;4840374;29;20110;-81
2022/12/22 13:53:08;;;;;;;28.27;15.00;;;;;;;7.26;100.00;99475.88;4874744;29;20056;-81
2022/12/22 13:55:36;;;;;;;33.30;18.73;;;;;;;7.26;100.00;99478.50;4845108;29;20075;-81
2022/12/22 13:58:22;;;;;;;39.20;20.47;;;;;;;7.31;100.00;99482.75;4858416;29;20052;-81
2022/12/22 14:01:15;;;;;;;33.10;18.60;;;;;;;7.36;100.00;99484.38;4842075;29;20045;-81
2022/12/22 14:03:46;;;;;;;23.57;15.53;;;;;;;7.33;100.00;99486.19;4852268;29;20132;-81
2022/12/22 14:06:34;;;;;;;25.23;15.70;;;;;;;7.28;100.00;99485.44;4862934;29;20054;-81
2022/12/22 14:09:22;;;;;;;26.27;15.97;;;;;;;7.39;100.00;99497.44;4856708;29;20049;-81
2022/12/22 14:11:56;;;;;;;29.10;16.03;;;;;;;7.37;100.00;99496.63;4851468;29;20037;-82
2022/12/22 14:14:26;;;;;;;27.13;15.40;;;;;;;7.28;100.00;99509.09;4830631;29;20048;-81
2022/12/22 14:16:56;;;;;;;26.43;15.17;;;;;;;7.32;100.00;99515.16;4840599;29;20041;-80
2022/12/22 14:19:23;;;;;;;26.20;15.30;;;;;;;7.31;100.00;99511.66;4859358;29;20089;-80
2022/12/22 14:22:02;;;;;;;25.63;14.80;;;;;;;7.28;100.00;99511.72;4828844;29;20415;-80
2022/12/22 14:24:33;;;;;;;24.30;14.33;;;;;;;7.30;100.00;99507.28;4873527;29;21748;-82
2022/12/22 14:27:05;;;;;;;23.23;14.27;;;;;;;7.23;100.00;99510.09;4876497;29;20578;-82
2022/12/22 14:29:31;;;;;;;21.37;13.30;;;;;;;7.22;100.00;99518.88;4876131;29;20056;-82
2022/12/22 14:32:00;;;;;;;23.37;14.13;;;;;;;7.19;100.00;99526.84;4869248;29;20136;-82
2022/12/22 14:34:58;;;;;;;22.20;14.60;;;;;;;7.19;100.00;99514.56;4846666;29;20190;-82
2022/12/22 14:37:38;;;;;;;25.05;15.45;;;;;;;7.21;100.00;99519.78;4853066;29;20094;-82
2022/12/22 14:40:13;;;;;;;26.35;16.55;;;;;;;7.22;100.00;99521.50;4855114;29;20069;-82
2022/12/22 14:42:43;;;;;;;;;;;;;;;7.20;100.00;99526.81;4855907;29;20144;-82
2022/12/22 14:45:14;;;;;;;16.60;11.70;;;;;;;7.16;100.00;99527.81;4864556;29;20374;-82
2022/12/22 14:47:41;;;;;;;16.60;11.00;;;;;;;7.14;100.00;99526.09;4870641;29;20102;-82
2022/12/22 14:50:22;;;;;;;16.67;11.13;;;;;;;7.17;100.00;99526.91;4853574;29;20053;-82
2022/12/22 14:52:51;;;;;;;14.90;9.33;;;;;;;7.16;100.00;99521.69;4841042;29;20052;-82
2022/12/22 14:55:32;;;;;;;14.63;9.87;;;;;;;7.11;100.00;99532.28;4854329;29;20106;-82
2022/12/22 14:58:11;;;;;;;15.17;10.27;;;;;;;7.13;100.00;99527.84;4870612;29;20060;-83
2022/12/22 15:01:23;;;;;;;17.93;11.17;;;;;;;7.13;100.00;99532.25;4840403;29;20571;-82
2022/12/22 15:04:15;;;;;;;18.80;10.87;;;;;;;7.15;100.00;99528.72;4842565;29;20073;-82
2022/12/22 15:06:44;;;;;;;16.00;9.80;;;;;;;7.13;100.00;99527.84;4825491;29;20041;-84
2022/12/22 15:09:14;;;;;;;15.23;9.60;;;;;;;7.18;100.00;99522.50;4858228;29;20054;-83
2022/12/22 15:11:47;;;;;;;15.97;10.27;;;;;;;7.09;100.00;99541.13;4853709;29;20041;-83
2022/12/22 15:14:16;;;;;;;18.00;11.77;;;;;;;7.06;100.00;99536.78;4856246;29;20037;-82
2022/12/22 15:16:44;;;;;;;16.77;11.70;;;;;;;7.06;100.00;99539.41;4836236;29;20045;-83
2022/12/22 15:19:13;;;;;;;16.07;10.27;;;;;;;7.07;100.00;99550.81;4870039;29;20057;-82
2022/12/22 15:21:39;;;;;;;18.53;10.90;;;;;;;7.12;100.00;99554.16;4855335;29;20045;-83